sensor_id;sensor_type;location;lat;lon;timestamp;P1;durP1;ratioP1;P2;durP2;ratioP2
11418;SDS011;32800;44.876;13.880;2023-10-13T00:01:07;21.55;;;12.32;;
11418;SDS011;32800;44.876;13.880;2023-10-13T00:03:36;18.70;;;12.57;;
11418;SDS011;32800;44.876;13.880;2023-10-13T00:06:02;20.80;;;12.38;;
11418;SDS011;32800;44.876;13.880;2023-10-13T00:08:31;18.60;;;12.70;;
11418;SDS011;32800;44.876;13.880;2023-10-13T00:10:56;25.08;;;12.48;;
11418;SDS011;32800;44.876;13.880;2023-10-13T00:13:26;22.15;;;12.35;;
11418;SDS011;32800;44.876;13.880;2023-10-13T00:15:52;20.15;;;12.23;;
11418;SDS011;32800;44.876;13.880;2023-10-13T00:18:30;19.67;;;12.00;;
11418;SDS011;32800;44.876;13.880;2023-10-13T00:21:00;18.50;;;11.50;;
11418;SDS011;32800;44.876;13.880;2023-10-13T00:23:28;18.48;;;12.32;;
11418;SDS011;32800;44.876;13.880;2023-10-13T00:25:54;21.50;;;11.68;;
11418;SDS011;32800;44.876;13.880;2023-10-13T00:28:24;17.00;;;11.57;;
11418;SDS011;32800;44.876;13.880;2023-10-13T00:31:00;16.13;;;11.63;;
11418;SDS011;32800;44.876;13.880;2023-10-13T00:33:36;18.10;;;12.15;;
11418;SDS011;32800;44.876;13.880;2023-10-13T00:36:03;21.60;;;12.15;;
11418;SDS011;32800;44.876;13.880;2023-10-13T00:38:30;18.65;;;12.13;;
11418;SDS011;32800;44.876;13.880;2023-10-13T00:40:55;19.15;;;11.85;;
11418;SDS011;32800;44.876;13.880;2023-10-13T00:43:28;18.80;;;11.95;;
11418;SDS011;32800;44.876;13.880;2023-10-13T00:46:00;19.67;;;11.18;;
11418;SDS011;32800;44.876;13.880;2023-10-13T00:48:29;18.75;;;11.57;;
11418;SDS011;32800;44.876;13.880;2023-10-13T00:51:06;17.35;;;11.70;;
11418;SDS011;32800;44.876;13.880;2023-10-13T00:53:32;18.55;;;11.40;;
11418;SDS011;32800;44.876;13.880;2023-10-13T00:56:09;18.08;;;11.65;;
11418;SDS011;32800;44.876;13.880;2023-10-13T00:58:49;16.58;;;10.70;;
11418;SDS011;32800;44.876;13.880;2023-10-13T01:01:16;16.42;;;11.48;;
11418;SDS011;32800;44.876;13.880;2023-10-13T01:03:51;18.65;;;11.00;;
11418;SDS011;32800;44.876;13.880;2023-10-13T01:06:33;17.20;;;10.73;;
11418;SDS011;32800;44.876;13.880;2023-10-13T01:09:02;18.67;;;12.10;;
11418;SDS011;32800;44.876;13.880;2023-10-13T01:11:38;15.82;;;11.52;;
11418;SDS011;32800;44.876;13.880;2023-10-13T01:14:04;15.70;;;10.98;;
11418;SDS011;32800;44.876;13.880;2023-10-13T01:16:30;17.17;;;11.70;;
11418;SDS011;32800;44.876;13.880;2023-10-13T01:18:56;18.75;;;11.18;;
11418;SDS011;32800;44.876;13.880;2023-10-13T01:21:25;16.08;;;10.93;;
11418;SDS011;32800;44.876;13.880;2023-10-13T01:23:52;20.02;;;11.57;;
11418;SDS011;32800;44.876;13.880;2023-10-13T01:26:19;17.98;;;11.60;;
11418;SDS011;32800;44.876;13.880;2023-10-13T01:28:51;18.98;;;11.63;;
11418;SDS011;32800;44.876;13.880;2023-10-13T01:31:21;17.40;;;11.20;;
11418;SDS011;32800;44.876;13.880;2023-10-13T01:33:52;19.33;;;11.07;;
11418;SDS011;32800;44.876;13.880;2023-10-13T01:36:23;16.33;;;10.90;;
11418;SDS011;32800;44.876;13.880;2023-10-13T01:38:50;16.27;;;11.77;;
11418;SDS011;32800;44.876;13.880;2023-10-13T01:41:16;17.80;;;11.13;;
11418;SDS011;32800;44.876;13.880;2023-10-13T01:43:44;15.10;;;10.52;;
11418;SDS011;32800;44.876;13.880;2023-10-13T01:46:09;17.70;;;11.45;;
11418;SDS011;32800;44.876;13.880;2023-10-13T01:48:38;14.30;;;10.25;;
11418;SDS011;32800;44.876;13.880;2023-10-13T01:51:05;17.48;;;11.85;;
11418;SDS011;32800;44.876;13.880;2023-10-13T01:53:35;15.20;;;10.35;;
11418;SDS011;32800;44.876;13.880;2023-10-13T01:56:02;15.13;;;10.50;;
11418;SDS011;32800;44.876;13.880;2023-10-13T01:58:31;16.80;;;11.35;;
11418;SDS011;32800;44.876;13.880;2023-10-13T02:00:56;15.95;;;10.27;;
11418;SDS011;32800;44.876;13.880;2023-10-13T02:03:22;20.58;;;10.80;;
11418;SDS011;32800;44.876;13.880;2023-10-13T02:05:48;21.70;;;10.63;;
11418;SDS011;32800;44.876;13.880;2023-10-13T02:08:15;20.38;;;10.30;;
11418;SDS011;32800;44.876;13.880;2023-10-13T02:10:50;24.90;;;10.82;;
11418;SDS011;32800;44.876;13.880;2023-10-13T02:13:17;18.30;;;10.50;;
11418;SDS011;32800;44.876;13.880;2023-10-13T02:15:45;17.92;;;11.40;;
11418;SDS011;32800;44.876;13.880;2023-10-13T02:18:13;22.33;;;9.85;;
11418;SDS011;32800;44.876;13.880;2023-10-13T02:20:46;19.58;;;11.10;;
11418;SDS011;32800;44.876;13.880;2023-10-13T02:23:19;18.08;;;11.18;;
11418;SDS011;32800;44.876;13.880;2023-10-13T02:25:45;20.75;;;10.88;;
11418;SDS011;32800;44.876;13.880;2023-10-13T02:28:11;17.90;;;11.25;;
11418;SDS011;32800;44.876;13.880;2023-10-13T02:30:46;25.15;;;10.27;;
11418;SDS011;32800;44.876;13.880;2023-10-13T02:33:15;18.40;;;10.65;;
11418;SDS011;32800;44.876;13.880;2023-10-13T02:35:47;18.48;;;10.63;;
11418;SDS011;32800;44.876;13.880;2023-10-13T02:38:20;20.10;;;10.98;;
11418;SDS011;32800;44.876;13.880;2023-10-13T02:41:13;16.73;;;10.88;;
11418;SDS011;32800;44.876;13.880;2023-10-13T02:43:44;16.38;;;10.63;;
11418;SDS011;32800;44.876;13.880;2023-10-13T02:46:10;18.80;;;11.35;;
11418;SDS011;32800;44.876;13.880;2023-10-13T02:48:35;17.55;;;10.20;;
11418;SDS011;32800;44.876;13.880;2023-10-13T02:51:11;16.40;;;9.98;;
11418;SDS011;32800;44.876;13.880;2023-10-13T02:53:47;17.95;;;10.07;;
11418;SDS011;32800;44.876;13.880;2023-10-13T02:56:16;18.73;;;11.07;;
11418;SDS011;32800;44.876;13.880;2023-10-13T02:58:51;16.73;;;10.93;;
11418;SDS011;32800;44.876;13.880;2023-10-13T03:01:36;20.75;;;10.65;;
11418;SDS011;32800;44.876;13.880;2023-10-13T03:04:02;17.90;;;10.15;;
11418;SDS011;32800;44.876;13.880;2023-10-13T03:06:28;16.35;;;10.25;;
11418;SDS011;32800;44.876;13.880;2023-10-13T03:09:30;22.00;;;10.60;;
11418;SDS011;32800;44.876;13.880;2023-10-13T03:11:48;19.83;;;10.48;;
11418;SDS011;32800;44.876;13.880;2023-10-13T03:14:15;18.40;;;10.50;;
11418;SDS011;32800;44.876;13.880;2023-10-13T03:16:56;13.52;;;9.45;;
11418;SDS011;32800;44.876;13.880;2023-10-13T03:19:42;17.35;;;10.27;;
11418;SDS011;32800;44.876;13.880;2023-10-13T03:22:11;15.55;;;10.20;;
11418;SDS011;32800;44.876;13.880;2023-10-13T03:24:37;17.25;;;9.60;;
11418;SDS011;32800;44.876;13.880;2023-10-13T03:27:18;18.23;;;10.20;;
11418;SDS011;32800;44.876;13.880;2023-10-13T03:29:48;18.58;;;9.98;;
11418;SDS011;32800;44.876;13.880;2023-10-13T03:32:19;15.40;;;9.40;;
11418;SDS011;32800;44.876;13.880;2023-10-13T03:34:46;16.40;;;9.70;;
11418;SDS011;32800;44.876;13.880;2023-10-13T03:37:19;15.10;;;8.77;;
11418;SDS011;32800;44.876;13.880;2023-10-13T03:40:03;15.45;;;9.60;;
11418;SDS011;32800;44.876;13.880;2023-10-13T03:42:53;15.05;;;9.35;;
11418;SDS011;32800;44.876;13.880;2023-10-13T03:45:38;17.60;;;10.27;;
11418;SDS011;32800;44.876;13.880;2023-10-13T03:48:12;15.60;;;10.18;;
11418;SDS011;32800;44.876;13.880;2023-10-13T03:50:57;13.82;;;9.32;;
11418;SDS011;32800;44.876;13.880;2023-10-13T03:53:31;16.58;;;9.68;;
11418;SDS011;32800;44.876;13.880;2023-10-13T03:56:04;16.35;;;9.90;;
11418;SDS011;32800;44.876;13.880;2023-10-13T03:58:34;12.80;;;9.02;;
11418;SDS011;32800;44.876;13.880;2023-10-13T04:01:00;14.07;;;9.98;;
11418;SDS011;32800;44.876;13.880;2023-10-13T04:03:26;13.75;;;9.30;;
11418;SDS011;32800;44.876;13.880;2023-10-13T04:06:06;25.02;;;9.85;;
11418;SDS011;32800;44.876;13.880;2023-10-13T04:08:33;15.57;;;9.98;;
11418;SDS011;32800;44.876;13.880;2023-10-13T04:11:13;15.95;;;9.00;;
11418;SDS011;32800;44.876;13.880;2023-10-13T04:13:57;28.10;;;10.13;;
11418;SDS011;32800;44.876;13.880;2023-10-13T04:16:41;16.90;;;9.30;;
11418;SDS011;32800;44.876;13.880;2023-10-13T04:19:17;15.07;;;9.48;;
11418;SDS011;32800;44.876;13.880;2023-10-13T04:21:48;15.88;;;9.20;;
11418;SDS011;32800;44.876;13.880;2023-10-13T04:24:23;14.82;;;9.65;;
11418;SDS011;32800;44.876;13.880;2023-10-13T04:27:02;15.82;;;9.10;;
11418;SDS011;32800;44.876;13.880;2023-10-13T04:29:37;25.70;;;10.63;;
11418;SDS011;32800;44.876;13.880;2023-10-13T04:32:22;24.55;;;10.00;;
11418;SDS011;32800;44.876;13.880;2023-10-13T04:34:57;20.10;;;9.80;;
11418;SDS011;32800;44.876;13.880;2023-10-13T04:37:42;18.58;;;10.02;;
11418;SDS011;32800;44.876;13.880;2023-10-13T04:40:14;24.73;;;10.23;;
11418;SDS011;32800;44.876;13.880;2023-10-13T04:42:40;14.15;;;8.77;;
11418;SDS011;32800;44.876;13.880;2023-10-13T04:45:17;17.20;;;10.05;;
11418;SDS011;32800;44.876;13.880;2023-10-13T04:48:03;19.73;;;9.93;;
11418;SDS011;32800;44.876;13.880;2023-10-13T04:50:58;17.92;;;8.90;;
11418;SDS011;32800;44.876;13.880;2023-10-13T04:53:44;19.75;;;9.68;;
11418;SDS011;32800;44.876;13.880;2023-10-13T04:56:28;19.40;;;9.23;;
11418;SDS011;32800;44.876;13.880;2023-10-13T04:59:23;16.67;;;9.70;;
11418;SDS011;32800;44.876;13.880;2023-10-13T05:02:02;24.42;;;9.43;;
11418;SDS011;32800;44.876;13.880;2023-10-13T05:04:46;17.52;;;9.07;;
11418;SDS011;32800;44.876;13.880;2023-10-13T05:07:31;18.42;;;9.52;;
11418;SDS011;32800;44.876;13.880;2023-10-13T05:10:16;15.63;;;9.43;;
11418;SDS011;32800;44.876;13.880;2023-10-13T05:13:01;21.48;;;9.90;;
11418;SDS011;32800;44.876;13.880;2023-10-13T05:15:48;15.63;;;8.88;;
11418;SDS011;32800;44.876;13.880;2023-10-13T05:18:34;15.55;;;9.48;;
11418;SDS011;32800;44.876;13.880;2023-10-13T05:21:18;13.43;;;9.15;;
11418;SDS011;32800;44.876;13.880;2023-10-13T05:24:03;16.40;;;9.20;;
11418;SDS011;32800;44.876;13.880;2023-10-13T05:26:47;10.90;;;9.00;;
11418;SDS011;32800;44.876;13.880;2023-10-13T05:29:31;18.00;;;10.65;;
11418;SDS011;32800;44.876;13.880;2023-10-13T05:32:20;20.73;;;10.35;;
11418;SDS011;32800;44.876;13.880;2023-10-13T05:35:04;14.32;;;9.95;;
11418;SDS011;32800;44.876;13.880;2023-10-13T05:37:48;14.20;;;9.80;;
11418;SDS011;32800;44.876;13.880;2023-10-13T05:40:32;20.13;;;9.98;;
11418;SDS011;32800;44.876;13.880;2023-10-13T05:43:17;12.30;;;9.95;;
11418;SDS011;32800;44.876;13.880;2023-10-13T05:46:01;12.40;;;9.68;;
11418;SDS011;32800;44.876;13.880;2023-10-13T05:48:47;14.65;;;9.85;;
11418;SDS011;32800;44.876;13.880;2023-10-13T05:51:25;12.52;;;9.75;;
11418;SDS011;32800;44.876;13.880;2023-10-13T05:53:58;12.45;;;9.60;;
11418;SDS011;32800;44.876;13.880;2023-10-13T05:56:43;10.00;;;8.90;;
11418;SDS011;32800;44.876;13.880;2023-10-13T05:59:28;11.75;;;9.48;;
11418;SDS011;32800;44.876;13.880;2023-10-13T06:02:14;15.15;;;9.90;;
11418;SDS011;32800;44.876;13.880;2023-10-13T06:05:02;10.38;;;9.38;;
11418;SDS011;32800;44.876;13.880;2023-10-13T06:07:47;11.13;;;9.23;;
11418;SDS011;32800;44.876;13.880;2023-10-13T06:10:31;13.10;;;9.40;;
11418;SDS011;32800;44.876;13.880;2023-10-13T06:13:15;11.50;;;10.07;;
11418;SDS011;32800;44.876;13.880;2023-10-13T06:15:59;12.38;;;10.07;;
11418;SDS011;32800;44.876;13.880;2023-10-13T06:18:43;12.13;;;9.80;;
11418;SDS011;32800;44.876;13.880;2023-10-13T06:21:27;12.90;;;9.93;;
11418;SDS011;32800;44.876;13.880;2023-10-13T06:24:11;13.07;;;9.50;;
11418;SDS011;32800;44.876;13.880;2023-10-13T06:26:55;13.40;;;10.20;;
11418;SDS011;32800;44.876;13.880;2023-10-13T06:29:39;12.73;;;10.05;;
11418;SDS011;32800;44.876;13.880;2023-10-13T06:32:05;11.52;;;9.50;;
11418;SDS011;32800;44.876;13.880;2023-10-13T06:34:37;12.18;;;9.50;;
11418;SDS011;32800;44.876;13.880;2023-10-13T06:37:07;10.40;;;9.30;;
11418;SDS011;32800;44.876;13.880;2023-10-13T06:39:52;11.07;;;9.90;;
11418;SDS011;32800;44.876;13.880;2023-10-13T06:42:24;11.05;;;9.57;;
11418;SDS011;32800;44.876;13.880;2023-10-13T06:44:54;11.10;;;9.55;;
11418;SDS011;32800;44.876;13.880;2023-10-13T06:47:20;10.40;;;9.10;;
11418;SDS011;32800;44.876;13.880;2023-10-13T06:49:46;11.25;;;10.00;;
11418;SDS011;32800;44.876;13.880;2023-10-13T06:52:13;11.50;;;9.40;;
11418;SDS011;32800;44.876;13.880;2023-10-13T06:54:41;10.55;;;9.15;;
11418;SDS011;32800;44.876;13.880;2023-10-13T06:57:08;10.93;;;9.13;;
11418;SDS011;32800;44.876;13.880;2023-10-13T06:59:39;11.45;;;8.60;;
11418;SDS011;32800;44.876;13.880;2023-10-13T07:02:06;12.13;;;9.10;;
11418;SDS011;32800;44.876;13.880;2023-10-13T07:04:45;11.00;;;8.60;;
11418;SDS011;32800;44.876;13.880;2023-10-13T07:07:12;10.02;;;7.82;;
11418;SDS011;32800;44.876;13.880;2023-10-13T07:09:40;8.20;;;7.40;;
11418;SDS011;32800;44.876;13.880;2023-10-13T07:12:20;8.88;;;8.00;;
11418;SDS011;32800;44.876;13.880;2023-10-13T07:14:52;8.50;;;7.65;;
11418;SDS011;32800;44.876;13.880;2023-10-13T07:17:25;8.68;;;7.75;;
11418;SDS011;32800;44.876;13.880;2023-10-13T07:19:54;9.15;;;7.10;;
11418;SDS011;32800;44.876;13.880;2023-10-13T07:22:21;11.55;;;7.95;;
11418;SDS011;32800;44.876;13.880;2023-10-13T07:24:48;9.80;;;7.65;;
11418;SDS011;32800;44.876;13.880;2023-10-13T07:27:21;8.40;;;7.47;;
11418;SDS011;32800;44.876;13.880;2023-10-13T07:29:54;9.80;;;8.75;;
11418;SDS011;32800;44.876;13.880;2023-10-13T07:32:38;10.75;;;8.85;;
11418;SDS011;32800;44.876;13.880;2023-10-13T07:35:14;14.90;;;10.43;;
11418;SDS011;32800;44.876;13.880;2023-10-13T07:37:43;11.73;;;10.23;;
11418;SDS011;32800;44.876;13.880;2023-10-13T07:40:08;12.13;;;10.50;;
11418;SDS011;32800;44.876;13.880;2023-10-13T07:42:54;13.77;;;10.65;;
11418;SDS011;32800;44.876;13.880;2023-10-13T07:45:29;12.52;;;9.73;;
11418;SDS011;32800;44.876;13.880;2023-10-13T07:48:08;12.18;;;10.25;;
11418;SDS011;32800;44.876;13.880;2023-10-13T07:50:42;13.18;;;10.48;;
11418;SDS011;32800;44.876;13.880;2023-10-13T07:53:09;13.80;;;10.35;;
11418;SDS011;32800;44.876;13.880;2023-10-13T07:55:50;13.73;;;10.07;;
11418;SDS011;32800;44.876;13.880;2023-10-13T07:58:20;15.18;;;10.80;;
11418;SDS011;32800;44.876;13.880;2023-10-13T08:00:50;14.32;;;10.93;;
11418;SDS011;32800;44.876;13.880;2023-10-13T08:03:20;12.82;;;11.02;;
11418;SDS011;32800;44.876;13.880;2023-10-13T08:06:04;14.00;;;11.20;;
11418;SDS011;32800;44.876;13.880;2023-10-13T08:08:32;13.50;;;11.43;;
11418;SDS011;32800;44.876;13.880;2023-10-13T08:11:03;15.82;;;11.15;;
11418;SDS011;32800;44.876;13.880;2023-10-13T08:13:58;13.77;;;11.52;;
11418;SDS011;32800;44.876;13.880;2023-10-13T08:16:28;14.32;;;10.85;;
11418;SDS011;32800;44.876;13.880;2023-10-13T08:19:15;13.18;;;10.60;;
11418;SDS011;32800;44.876;13.880;2023-10-13T08:21:42;14.05;;;11.38;;
11418;SDS011;32800;44.876;13.880;2023-10-13T08:24:17;12.98;;;10.63;;
11418;SDS011;32800;44.876;13.880;2023-10-13T08:27:01;12.63;;;10.20;;
11418;SDS011;32800;44.876;13.880;2023-10-13T08:29:46;11.95;;;10.02;;
11418;SDS011;32800;44.876;13.880;2023-10-13T08:32:21;12.15;;;10.23;;
11418;SDS011;32800;44.876;13.880;2023-10-13T08:34:56;13.15;;;11.15;;
11418;SDS011;32800;44.876;13.880;2023-10-13T08:37:22;13.32;;;11.93;;
11418;SDS011;32800;44.876;13.880;2023-10-13T08:39:52;15.68;;;11.10;;
11418;SDS011;32800;44.876;13.880;2023-10-13T08:42:31;13.38;;;10.70;;
11418;SDS011;32800;44.876;13.880;2023-10-13T08:45:21;13.93;;;10.70;;
11418;SDS011;32800;44.876;13.880;2023-10-13T08:47:54;12.82;;;10.30;;
11418;SDS011;32800;44.876;13.880;2023-10-13T08:50:33;12.95;;;9.85;;
11418;SDS011;32800;44.876;13.880;2023-10-13T08:53:20;11.13;;;10.00;;
11418;SDS011;32800;44.876;13.880;2023-10-13T08:55:56;13.10;;;10.45;;
11418;SDS011;32800;44.876;13.880;2023-10-13T08:58:36;14.40;;;10.90;;
11418;SDS011;32800;44.876;13.880;2023-10-13T09:01:25;10.65;;;9.55;;
11418;SDS011;32800;44.876;13.880;2023-10-13T09:04:10;11.40;;;10.00;;
11418;SDS011;32800;44.876;13.880;2023-10-13T09:06:50;10.32;;;9.23;;
11418;SDS011;32800;44.876;13.880;2023-10-13T09:09:28;13.90;;;10.38;;
11418;SDS011;32800;44.876;13.880;2023-10-13T09:12:11;11.15;;;9.93;;
11418;SDS011;32800;44.876;13.880;2023-10-13T09:14:39;12.02;;;9.68;;
11418;SDS011;32800;44.876;13.880;2023-10-13T09:17:09;11.18;;;8.75;;
11418;SDS011;32800;44.876;13.880;2023-10-13T09:19:54;10.68;;;8.82;;
11418;SDS011;32800;44.876;13.880;2023-10-13T09:22:23;12.10;;;9.32;;
11418;SDS011;32800;44.876;13.880;2023-10-13T09:25:00;9.70;;;8.70;;
11418;SDS011;32800;44.876;13.880;2023-10-13T09:27:28;9.10;;;8.20;;
11418;SDS011;32800;44.876;13.880;2023-10-13T09:29:58;11.98;;;8.60;;
11418;SDS011;32800;44.876;13.880;2023-10-13T09:32:31;10.02;;;8.98;;
11418;SDS011;32800;44.876;13.880;2023-10-13T09:35:01;9.40;;;8.50;;
11418;SDS011;32800;44.876;13.880;2023-10-13T09:37:27;10.68;;;8.85;;
11418;SDS011;32800;44.876;13.880;2023-10-13T09:39:53;10.93;;;8.75;;
11418;SDS011;32800;44.876;13.880;2023-10-13T09:42:22;9.50;;;8.50;;
11418;SDS011;32800;44.876;13.880;2023-10-13T09:44:49;9.55;;;8.52;;
11418;SDS011;32800;44.876;13.880;2023-10-13T09:47:17;9.88;;;8.88;;
11418;SDS011;32800;44.876;13.880;2023-10-13T09:49:49;10.85;;;8.95;;
11418;SDS011;32800;44.876;13.880;2023-10-13T09:52:22;10.15;;;9.10;;
11418;SDS011;32800;44.876;13.880;2023-10-13T09:54:53;9.35;;;8.40;;
11418;SDS011;32800;44.876;13.880;2023-10-13T09:57:25;10.68;;;8.48;;
11418;SDS011;32800;44.876;13.880;2023-10-13T10:02:57;10.57;;;8.68;;
11418;SDS011;32800;44.876;13.880;2023-10-13T10:05:26;13.05;;;9.48;;
11418;SDS011;32800;44.876;13.880;2023-10-13T10:07:55;9.95;;;8.85;;
11418;SDS011;32800;44.876;13.880;2023-10-13T10:10:25;10.27;;;9.15;;
11418;SDS011;32800;44.876;13.880;2023-10-13T10:13:06;9.90;;;8.80;;
11418;SDS011;32800;44.876;13.880;2023-10-13T10:15:39;11.20;;;9.07;;
11418;SDS011;32800;44.876;13.880;2023-10-13T10:18:19;11.65;;;9.60;;
11418;SDS011;32800;44.876;13.880;2023-10-13T10:20:47;10.60;;;9.35;;
11418;SDS011;32800;44.876;13.880;2023-10-13T10:23:28;10.35;;;9.35;;
11418;SDS011;32800;44.876;13.880;2023-10-13T10:25:58;10.60;;;8.95;;
11418;SDS011;32800;44.876;13.880;2023-10-13T10:28:39;13.82;;;10.40;;
11418;SDS011;32800;44.876;13.880;2023-10-13T10:31:07;10.48;;;8.68;;
11418;SDS011;32800;44.876;13.880;2023-10-13T10:33:39;11.98;;;9.35;;
11418;SDS011;32800;44.876;13.880;2023-10-13T10:36:04;10.73;;;8.90;;
11418;SDS011;32800;44.876;13.880;2023-10-13T10:38:31;11.10;;;9.82;;
11418;SDS011;32800;44.876;13.880;2023-10-13T10:41:04;9.65;;;8.60;;
11418;SDS011;32800;44.876;13.880;2023-10-13T10:46:14;10.52;;;9.02;;
11418;SDS011;32800;44.876;13.880;2023-10-13T10:48:47;13.25;;;9.75;;
11418;SDS011;32800;44.876;13.880;2023-10-13T10:51:13;9.82;;;8.77;;
11418;SDS011;32800;44.876;13.880;2023-10-13T10:53:49;10.25;;;9.00;;
11418;SDS011;32800;44.876;13.880;2023-10-13T10:56:17;10.35;;;8.82;;
11418;SDS011;32800;44.876;13.880;2023-10-13T10:59:05;10.15;;;8.63;;
11418;SDS011;32800;44.876;13.880;2023-10-13T11:01:44;10.45;;;8.43;;
11418;SDS011;32800;44.876;13.880;2023-10-13T11:04:16;9.30;;;8.40;;
11418;SDS011;32800;44.876;13.880;2023-10-13T11:06:52;9.65;;;8.52;;
11418;SDS011;32800;44.876;13.880;2023-10-13T11:11:57;10.13;;;8.88;;
11418;SDS011;32800;44.876;13.880;2023-10-13T11:14:26;9.52;;;8.43;;
11418;SDS011;32800;44.876;13.880;2023-10-13T11:16:54;10.15;;;8.63;;
11418;SDS011;32800;44.876;13.880;2023-10-13T11:19:42;10.30;;;8.30;;
11418;SDS011;32800;44.876;13.880;2023-10-13T11:25:01;8.82;;;7.93;;
11418;SDS011;32800;44.876;13.880;2023-10-13T11:27:39;8.80;;;7.90;;
11418;SDS011;32800;44.876;13.880;2023-10-13T11:30:13;9.32;;;8.43;;
11418;SDS011;32800;44.876;13.880;2023-10-13T11:35:44;9.10;;;7.70;;
11418;SDS011;32800;44.876;13.880;2023-10-13T11:43:45;9.70;;;8.73;;
11418;SDS011;32800;44.876;13.880;2023-10-13T11:46:15;9.18;;;8.20;;
11418;SDS011;32800;44.876;13.880;2023-10-13T11:48:44;11.05;;;8.30;;
11418;SDS011;32800;44.876;13.880;2023-10-13T11:51:12;9.50;;;8.13;;
11418;SDS011;32800;44.876;13.880;2023-10-13T11:54:00;8.95;;;8.02;;
11418;SDS011;32800;44.876;13.880;2023-10-13T11:56:25;9.93;;;8.93;;
11418;SDS011;32800;44.876;13.880;2023-10-13T11:58:51;9.35;;;7.65;;
11418;SDS011;32800;44.876;13.880;2023-10-13T12:01:17;9.40;;;8.45;;
11418;SDS011;32800;44.876;13.880;2023-10-13T12:03:45;9.65;;;8.73;;
11418;SDS011;32800;44.876;13.880;2023-10-13T12:06:31;8.60;;;7.60;;
11418;SDS011;32800;44.876;13.880;2023-10-13T12:09:04;8.60;;;7.72;;
11418;SDS011;32800;44.876;13.880;2023-10-13T12:11:46;10.32;;;8.80;;
11418;SDS011;32800;44.876;13.880;2023-10-13T12:14:15;9.13;;;8.23;;
11418;SDS011;32800;44.876;13.880;2023-10-13T12:16:54;8.90;;;8.00;;
11418;SDS011;32800;44.876;13.880;2023-10-13T12:19:21;8.40;;;7.60;;
11418;SDS011;32800;44.876;13.880;2023-10-13T12:21:51;12.80;;;9.23;;
11418;SDS011;32800;44.876;13.880;2023-10-13T12:24:24;8.98;;;8.10;;
11418;SDS011;32800;44.876;13.880;2023-10-13T12:27:03;8.23;;;7.50;;
11418;SDS011;32800;44.876;13.880;2023-10-13T12:29:52;8.15;;;7.35;;
11418;SDS011;32800;44.876;13.880;2023-10-13T12:32:18;9.73;;;8.35;;
11418;SDS011;32800;44.876;13.880;2023-10-13T12:34:49;9.07;;;8.18;;
11418;SDS011;32800;44.876;13.880;2023-10-13T12:37:30;8.80;;;7.25;;
11418;SDS011;32800;44.876;13.880;2023-10-13T12:42:53;8.80;;;7.90;;
11418;SDS011;32800;44.876;13.880;2023-10-13T12:45:44;8.52;;;7.63;;
11418;SDS011;32800;44.876;13.880;2023-10-13T12:48:29;8.10;;;7.30;;
11418;SDS011;32800;44.876;13.880;2023-10-13T12:51:14;8.00;;;7.20;;
11418;SDS011;32800;44.876;13.880;2023-10-13T12:53:50;10.80;;;8.00;;
11418;SDS011;32800;44.876;13.880;2023-10-13T12:56:16;8.63;;;7.82;;
11418;SDS011;32800;44.876;13.880;2023-10-13T12:58:43;8.52;;;7.50;;
11418;SDS011;32800;44.876;13.880;2023-10-13T13:01:22;10.77;;;7.50;;
11418;SDS011;32800;44.876;13.880;2023-10-13T13:03:50;8.63;;;7.18;;
11418;SDS011;32800;44.876;13.880;2023-10-13T13:06:21;13.25;;;8.35;;
11418;SDS011;32800;44.876;13.880;2023-10-13T13:08:51;8.85;;;7.45;;
11418;SDS011;32800;44.876;13.880;2023-10-13T13:11:19;7.60;;;6.90;;
11418;SDS011;32800;44.876;13.880;2023-10-13T13:13:45;8.25;;;7.38;;
11418;SDS011;32800;44.876;13.880;2023-10-13T13:16:12;8.68;;;7.45;;
11418;SDS011;32800;44.876;13.880;2023-10-13T13:18:38;8.18;;;7.22;;
11418;SDS011;32800;44.876;13.880;2023-10-13T13:21:04;9.60;;;6.85;;
11418;SDS011;32800;44.876;13.880;2023-10-13T13:23:31;9.02;;;7.68;;
11418;SDS011;32800;44.876;13.880;2023-10-13T13:25:59;8.63;;;7.72;;
11418;SDS011;32800;44.876;13.880;2023-10-13T13:28:25;9.48;;;7.30;;
11418;SDS011;32800;44.876;13.880;2023-10-13T13:30:53;9.60;;;7.70;;
11418;SDS011;32800;44.876;13.880;2023-10-13T13:33:19;8.70;;;7.78;;
11418;SDS011;32800;44.876;13.880;2023-10-13T13:35:52;8.63;;;7.72;;
11418;SDS011;32800;44.876;13.880;2023-10-13T13:38:18;9.45;;;7.82;;
11418;SDS011;32800;44.876;13.880;2023-10-13T13:40:47;8.80;;;7.90;;
11418;SDS011;32800;44.876;13.880;2023-10-13T13:43:19;9.02;;;7.45;;
11418;SDS011;32800;44.876;13.880;2023-10-13T13:46:18;9.25;;;8.10;;
11418;SDS011;32800;44.876;13.880;2023-10-13T13:48:52;8.93;;;7.97;;
11418;SDS011;32800;44.876;13.880;2023-10-13T13:51:29;10.00;;;8.93;;
11418;SDS011;32800;44.876;13.880;2023-10-13T13:53:57;9.00;;;8.05;;
11418;SDS011;32800;44.876;13.880;2023-10-13T13:56:23;11.70;;;8.48;;
11418;SDS011;32800;44.876;13.880;2023-10-13T13:58:53;9.30;;;7.63;;
11418;SDS011;32800;44.876;13.880;2023-10-13T14:01:20;12.15;;;8.38;;
11418;SDS011;32800;44.876;13.880;2023-10-13T14:03:47;10.38;;;8.27;;
11418;SDS011;32800;44.876;13.880;2023-10-13T14:06:16;9.63;;;8.63;;
11418;SDS011;32800;44.876;13.880;2023-10-13T14:08:49;9.32;;;8.40;;
11418;SDS011;32800;44.876;13.880;2023-10-13T14:11:17;8.80;;;7.68;;
11418;SDS011;32800;44.876;13.880;2023-10-13T14:13:48;9.57;;;8.57;;
11418;SDS011;32800;44.876;13.880;2023-10-13T14:16:17;8.80;;;7.90;;
11418;SDS011;32800;44.876;13.880;2023-10-13T14:18:44;8.98;;;7.80;;
11418;SDS011;32800;44.876;13.880;2023-10-13T14:21:11;8.40;;;7.60;;
11418;SDS011;32800;44.876;13.880;2023-10-13T14:23:42;11.13;;;8.43;;
11418;SDS011;32800;44.876;13.880;2023-10-13T14:26:11;9.02;;;8.10;;
11418;SDS011;32800;44.876;13.880;2023-10-13T14:28:37;9.35;;;8.38;;
11418;SDS011;32800;44.876;13.880;2023-10-13T14:31:12;8.82;;;7.93;;
11418;SDS011;32800;44.876;13.880;2023-10-13T14:33:39;8.40;;;7.57;;
11418;SDS011;32800;44.876;13.880;2023-10-13T14:36:04;8.55;;;7.65;;
11418;SDS011;32800;44.876;13.880;2023-10-13T14:38:30;12.50;;;8.55;;
11418;SDS011;32800;44.876;13.880;2023-10-13T14:40:59;11.13;;;8.00;;
11418;SDS011;32800;44.876;13.880;2023-10-13T14:43:24;10.38;;;8.68;;
11418;SDS011;32800;44.876;13.880;2023-10-13T14:45:53;11.15;;;8.63;;
11418;SDS011;32800;44.876;13.880;2023-10-13T14:48:19;8.77;;;7.88;;
11418;SDS011;32800;44.876;13.880;2023-10-13T14:50:44;11.60;;;8.38;;
11418;SDS011;32800;44.876;13.880;2023-10-13T14:53:10;9.10;;;8.20;;
11418;SDS011;32800;44.876;13.880;2023-10-13T14:55:36;9.50;;;7.78;;
11418;SDS011;32800;44.876;13.880;2023-10-13T14:58:05;9.32;;;8.35;;
11418;SDS011;32800;44.876;13.880;2023-10-13T15:00:33;8.90;;;8.00;;
11418;SDS011;32800;44.876;13.880;2023-10-13T15:02:59;8.30;;;7.50;;
11418;SDS011;32800;44.876;13.880;2023-10-13T15:05:31;8.90;;;7.90;;
11418;SDS011;32800;44.876;13.880;2023-10-13T15:08:00;8.88;;;7.65;;
11418;SDS011;32800;44.876;13.880;2023-10-13T15:10:28;8.85;;;7.95;;
11418;SDS011;32800;44.876;13.880;2023-10-13T15:12:54;10.23;;;8.38;;
11418;SDS011;32800;44.876;13.880;2023-10-13T15:15:19;8.52;;;7.53;;
11418;SDS011;32800;44.876;13.880;2023-10-13T15:17:45;8.40;;;7.47;;
11418;SDS011;32800;44.876;13.880;2023-10-13T15:20:11;9.20;;;7.60;;